Main page
METAR-TAF:

METAR-TAF

Airports :

Bacha Khan International Airport

Peshawar, Pakistan

latitude: 34-01N, longitude: 071-35E, elevation: 359 m

Current weather observation

The report was made 30 minutes ago, at 21:00 UTC
Wind 4 kt from the South
Temperature 16°C
Humidity 72%
Pressure 1018 hPa
Visibility: 5000 m
haze

METAR: OPPS 282100Z 18004KT 5000 HZ NSC 16/11 Q1018

Time: 02:30 (21:30 UTC)

Forecast

The report was made 6 hours and 0 minutes ago, at 15:30 UTC
Forecast valid from 28 at 18 UTC to 29 at 24 UTC
Wind 4 kt from the West/Southwest
Visibility: 4000 m
smoke
Becoming
from 29 at 02 UTC to 29 at 06 UTC
Wind 6 kt from the West/Southwest
Visibility: 5000 m
haze
From 29 at 0800 UTC
Wind 5 kt from the Northeast
Visibility: 7000 m

TAF: OPPS 281530Z 2818/2924 25004KT 4000 FU NSC BECMG 2902/2906 25006KT 5000 HZ NSC FM290800 05005KT 7000 NSC

Weather observations and forecasts of more than 4000 airports (METAR and TAF reports).

The available stations are represented by yellow and red dots on the map.

Hover mouse over dot to see the name of the station.

Then click to see weather observations and forecasts.

To change the map : click on the green buttons with a black cross to zoom in, on the green button with a dash to zoom out, or on the green arrows for adjacent maps.


METAR-TAF: